sensor_id;sensor_type;location;lat;lon;timestamp;temperature;humidity
14993;DHT22;7592;51.088;13.732;2022-08-01T00:01:13;22.80;99.90
14993;DHT22;7592;51.088;13.732;2022-08-01T00:06:05;23.00;99.90
14993;DHT22;7592;51.088;13.732;2022-08-01T00:10:58;23.00;99.90
14993;DHT22;7592;51.088;13.732;2022-08-01T00:15:53;23.00;99.90
14993;DHT22;7592;51.088;13.732;2022-08-01T00:20:46;22.90;99.90
14993;DHT22;7592;51.088;13.732;2022-08-01T00:25:39;22.80;99.90
14993;DHT22;7592;51.088;13.732;2022-08-01T00:30:31;22.70;99.90
14993;DHT22;7592;51.088;13.732;2022-08-01T00:35:24;22.70;99.90
14993;DHT22;7592;51.088;13.732;2022-08-01T00:40:16;22.60;99.90
14993;DHT22;7592;51.088;13.732;2022-08-01T00:45:09;22.60;99.90
14993;DHT22;7592;51.088;13.732;2022-08-01T00:50:04;22.40;99.90
14993;DHT22;7592;51.088;13.732;2022-08-01T00:54:56;22.20;99.90
14993;DHT22;7592;51.088;13.732;2022-08-01T00:59:48;22.00;99.90
14993;DHT22;7592;51.088;13.732;2022-08-01T01:04:43;21.80;99.90
14993;DHT22;7592;51.088;13.732;2022-08-01T01:15:04;21.50;99.90
14993;DHT22;7592;51.088;13.732;2022-08-01T01:20:00;21.30;99.90
14993;DHT22;7592;51.088;13.732;2022-08-01T01:30:18;21.10;99.90
14993;DHT22;7592;51.088;13.732;2022-08-01T01:35:45;21.10;99.90
14993;DHT22;7592;51.088;13.732;2022-08-01T01:40:38;21.10;99.90
14993;DHT22;7592;51.088;13.732;2022-08-01T01:45:31;21.20;99.90
14993;DHT22;7592;51.088;13.732;2022-08-01T01:50:24;21.20;99.90
14993;DHT22;7592;51.088;13.732;2022-08-01T01:55:19;21.40;99.90
14993;DHT22;7592;51.088;13.732;2022-08-01T02:00:12;21.60;99.90
14993;DHT22;7592;51.088;13.732;2022-08-01T02:05:10;21.60;99.90
14993;DHT22;7592;51.088;13.732;2022-08-01T02:10:04;21.50;99.90
14993;DHT22;7592;51.088;13.732;2022-08-01T02:14:56;21.60;99.90
14993;DHT22;7592;51.088;13.732;2022-08-01T02:19:50;21.60;99.90
14993;DHT22;7592;51.088;13.732;2022-08-01T02:30:04;21.50;99.90
14993;DHT22;7592;51.088;13.732;2022-08-01T02:34:57;21.50;99.90
14993;DHT22;7592;51.088;13.732;2022-08-01T02:39:54;21.50;99.90
14993;DHT22;7592;51.088;13.732;2022-08-01T02:44:47;21.70;99.90
14993;DHT22;7592;51.088;13.732;2022-08-01T02:49:43;21.70;99.90
14993;DHT22;7592;51.088;13.732;2022-08-01T02:54:37;21.70;99.90
14993;DHT22;7592;51.088;13.732;2022-08-01T02:59:31;21.80;99.90
14993;DHT22;7592;51.088;13.732;2022-08-01T03:04:25;21.70;99.90
14993;DHT22;7592;51.088;13.732;2022-08-01T03:09:18;21.60;99.90
14993;DHT22;7592;51.088;13.732;2022-08-01T03:14:12;21.50;99.90
14993;DHT22;7592;51.088;13.732;2022-08-01T03:19:06;21.50;99.90
14993;DHT22;7592;51.088;13.732;2022-08-01T03:24:00;21.50;99.90
14993;DHT22;7592;51.088;13.732;2022-08-01T03:28:55;21.60;99.90
14993;DHT22;7592;51.088;13.732;2022-08-01T03:33:48;21.60;99.90
14993;DHT22;7592;51.088;13.732;2022-08-01T03:38:42;21.50;99.90
14993;DHT22;7592;51.088;13.732;2022-08-01T03:43:41;21.50;99.90
14993;DHT22;7592;51.088;13.732;2022-08-01T03:48:40;21.50;99.90
14993;DHT22;7592;51.088;13.732;2022-08-01T03:53:34;21.60;99.90
14993;DHT22;7592;51.088;13.732;2022-08-01T03:58:32;21.60;99.90
14993;DHT22;7592;51.088;13.732;2022-08-01T04:03:25;21.60;99.90
14993;DHT22;7592;51.088;13.732;2022-08-01T04:08:18;21.60;99.90
14993;DHT22;7592;51.088;13.732;2022-08-01T04:13:10;21.70;99.90
14993;DHT22;7592;51.088;13.732;2022-08-01T04:18:02;21.70;99.90
14993;DHT22;7592;51.088;13.732;2022-08-01T04:22:54;21.80;99.90
14993;DHT22;7592;51.088;13.732;2022-08-01T04:27:49;21.70;99.90
14993;DHT22;7592;51.088;13.732;2022-08-01T04:32:44;21.80;99.90
14993;DHT22;7592;51.088;13.732;2022-08-01T04:37:38;22.00;99.90
14993;DHT22;7592;51.088;13.732;2022-08-01T04:42:33;22.30;99.90
14993;DHT22;7592;51.088;13.732;2022-08-01T04:47:26;22.80;99.90
14993;DHT22;7592;51.088;13.732;2022-08-01T04:52:18;23.10;99.90
14993;DHT22;7592;51.088;13.732;2022-08-01T04:57:15;23.10;99.90
14993;DHT22;7592;51.088;13.732;2022-08-01T05:02:12;23.00;99.90
14993;DHT22;7592;51.088;13.732;2022-08-01T05:07:05;22.90;99.90
14993;DHT22;7592;51.088;13.732;2022-08-01T05:12:02;23.20;99.90
14993;DHT22;7592;51.088;13.732;2022-08-01T05:16:55;23.40;99.90
14993;DHT22;7592;51.088;13.732;2022-08-01T05:21:48;23.20;99.90
14993;DHT22;7592;51.088;13.732;2022-08-01T05:26:40;23.20;99.90
14993;DHT22;7592;51.088;13.732;2022-08-01T05:31:33;23.20;99.90
14993;DHT22;7592;51.088;13.732;2022-08-01T05:36:26;23.30;99.90
14993;DHT22;7592;51.088;13.732;2022-08-01T05:41:18;23.50;99.90
14993;DHT22;7592;51.088;13.732;2022-08-01T05:46:10;23.90;99.90
14993;DHT22;7592;51.088;13.732;2022-08-01T05:51:03;24.50;99.90
14993;DHT22;7592;51.088;13.732;2022-08-01T05:55:55;24.80;99.90
14993;DHT22;7592;51.088;13.732;2022-08-01T06:00:48;24.80;99.90
14993;DHT22;7592;51.088;13.732;2022-08-01T06:05:40;24.70;99.90
14993;DHT22;7592;51.088;13.732;2022-08-01T06:10:32;24.70;99.90
14993;DHT22;7592;51.088;13.732;2022-08-01T06:15:24;24.60;99.90
14993;DHT22;7592;51.088;13.732;2022-08-01T06:20:17;24.50;99.90
14993;DHT22;7592;51.088;13.732;2022-08-01T06:25:09;24.30;99.90
14993;DHT22;7592;51.088;13.732;2022-08-01T06:30:01;24.20;99.90
14993;DHT22;7592;51.088;13.732;2022-08-01T06:34:54;24.00;99.90
14993;DHT22;7592;51.088;13.732;2022-08-01T06:39:47;23.90;99.90
14993;DHT22;7592;51.088;13.732;2022-08-01T06:44:40;23.90;99.90
14993;DHT22;7592;51.088;13.732;2022-08-01T06:49:32;23.80;99.90
14993;DHT22;7592;51.088;13.732;2022-08-01T06:54:24;23.60;99.90
14993;DHT22;7592;51.088;13.732;2022-08-01T06:59:16;23.70;99.90
14993;DHT22;7592;51.088;13.732;2022-08-01T07:04:08;23.70;99.90
14993;DHT22;7592;51.088;13.732;2022-08-01T07:09:00;23.40;99.90
14993;DHT22;7592;51.088;13.732;2022-08-01T07:14:01;23.40;99.90
14993;DHT22;7592;51.088;13.732;2022-08-01T07:18:55;23.50;99.90
14993;DHT22;7592;51.088;13.732;2022-08-01T07:23:47;23.70;99.90
14993;DHT22;7592;51.088;13.732;2022-08-01T07:28:39;23.70;99.90
14993;DHT22;7592;51.088;13.732;2022-08-01T07:33:34;23.60;99.90
14993;DHT22;7592;51.088;13.732;2022-08-01T07:38:40;24.00;99.90
14993;DHT22;7592;51.088;13.732;2022-08-01T07:43:32;24.10;99.90
14993;DHT22;7592;51.088;13.732;2022-08-01T07:48:25;24.10;99.90
14993;DHT22;7592;51.088;13.732;2022-08-01T07:53:18;24.30;99.90
14993;DHT22;7592;51.088;13.732;2022-08-01T07:58:11;25.00;99.90
14993;DHT22;7592;51.088;13.732;2022-08-01T08:03:03;25.90;99.90
14993;DHT22;7592;51.088;13.732;2022-08-01T08:07:55;26.40;99.90
14993;DHT22;7592;51.088;13.732;2022-08-01T08:12:48;26.60;99.90
14993;DHT22;7592;51.088;13.732;2022-08-01T08:17:40;26.90;99.90
14993;DHT22;7592;51.088;13.732;2022-08-01T08:22:33;27.30;99.90
14993;DHT22;7592;51.088;13.732;2022-08-01T08:27:26;27.40;99.90
14993;DHT22;7592;51.088;13.732;2022-08-01T08:32:18;27.90;99.90
14993;DHT22;7592;51.088;13.732;2022-08-01T08:37:10;28.30;99.90
14993;DHT22;7592;51.088;13.732;2022-08-01T08:42:07;27.90;99.90
14993;DHT22;7592;51.088;13.732;2022-08-01T08:47:01;27.20;99.90
14993;DHT22;7592;51.088;13.732;2022-08-01T08:52:01;27.20;99.90
14993;DHT22;7592;51.088;13.732;2022-08-01T08:56:55;29.00;99.90
14993;DHT22;7592;51.088;13.732;2022-08-01T09:01:48;29.10;99.90
14993;DHT22;7592;51.088;13.732;2022-08-01T09:06:40;29.00;99.90
14993;DHT22;7592;51.088;13.732;2022-08-01T09:11:33;32.80;99.90
14993;DHT22;7592;51.088;13.732;2022-08-01T09:16:25;39.10;89.40
14993;DHT22;7592;51.088;13.732;2022-08-01T09:21:19;42.60;66.00
14993;DHT22;7592;51.088;13.732;2022-08-01T09:26:15;40.10;64.80
14993;DHT22;7592;51.088;13.732;2022-08-01T09:31:16;40.20;65.70
14993;DHT22;7592;51.088;13.732;2022-08-01T09:36:09;40.60;61.90
14993;DHT22;7592;51.088;13.732;2022-08-01T09:41:05;39.00;64.30
14993;DHT22;7592;51.088;13.732;2022-08-01T09:46:04;39.20;63.30
14993;DHT22;7592;51.088;13.732;2022-08-01T09:50:59;37.40;66.00
14993;DHT22;7592;51.088;13.732;2022-08-01T09:56:11;38.70;63.40
14993;DHT22;7592;51.088;13.732;2022-08-01T10:01:04;42.10;57.90
14993;DHT22;7592;51.088;13.732;2022-08-01T10:05:59;41.30;56.70
14993;DHT22;7592;51.088;13.732;2022-08-01T10:11:08;39.00;58.70
14993;DHT22;7592;51.088;13.732;2022-08-01T10:16:05;36.80;62.90
14993;DHT22;7592;51.088;13.732;2022-08-01T10:20:59;34.90;66.20
14993;DHT22;7592;51.088;13.732;2022-08-01T10:25:53;33.60;71.40
14993;DHT22;7592;51.088;13.732;2022-08-01T10:30:48;35.80;67.10
14993;DHT22;7592;51.088;13.732;2022-08-01T10:35:41;37.80;62.90
14993;DHT22;7592;51.088;13.732;2022-08-01T10:40:40;37.70;62.70
14993;DHT22;7592;51.088;13.732;2022-08-01T10:45:32;39.10;60.10
14993;DHT22;7592;51.088;13.732;2022-08-01T10:50:34;38.60;60.40
14993;DHT22;7592;51.088;13.732;2022-08-01T10:55:27;38.70;60.10
14993;DHT22;7592;51.088;13.732;2022-08-01T11:00:22;37.10;62.30
14993;DHT22;7592;51.088;13.732;2022-08-01T11:05:21;35.80;65.70
14993;DHT22;7592;51.088;13.732;2022-08-01T11:10:29;34.80;68.30
14993;DHT22;7592;51.088;13.732;2022-08-01T11:15:25;35.10;68.20
14993;DHT22;7592;51.088;13.732;2022-08-01T11:20:34;36.70;65.50
14993;DHT22;7592;51.088;13.732;2022-08-01T11:30:54;34.70;68.80
14993;DHT22;7592;51.088;13.732;2022-08-01T11:41:14;37.50;61.30
14993;DHT22;7592;51.088;13.732;2022-08-01T11:46:07;34.80;65.80
14993;DHT22;7592;51.088;13.732;2022-08-01T11:51:00;32.00;73.00
14993;DHT22;7592;51.088;13.732;2022-08-01T11:55:54;30.00;81.00
14993;DHT22;7592;51.088;13.732;2022-08-01T12:00:54;29.40;84.00
14993;DHT22;7592;51.088;13.732;2022-08-01T12:05:46;28.70;86.00
14993;DHT22;7592;51.088;13.732;2022-08-01T12:10:38;29.20;86.10
14993;DHT22;7592;51.088;13.732;2022-08-01T12:15:42;29.80;85.00
14993;DHT22;7592;51.088;13.732;2022-08-01T12:20:37;29.80;84.30
14993;DHT22;7592;51.088;13.732;2022-08-01T12:25:51;29.80;85.40
14993;DHT22;7592;51.088;13.732;2022-08-01T12:30:47;29.10;86.70
14993;DHT22;7592;51.088;13.732;2022-08-01T12:35:40;28.80;88.30
14993;DHT22;7592;51.088;13.732;2022-08-01T12:40:37;29.20;87.70
14993;DHT22;7592;51.088;13.732;2022-08-01T12:45:43;30.10;86.70
14993;DHT22;7592;51.088;13.732;2022-08-01T12:50:50;30.90;82.50
14993;DHT22;7592;51.088;13.732;2022-08-01T12:55:49;30.60;82.20
14993;DHT22;7592;51.088;13.732;2022-08-01T13:01:03;30.60;82.20
14993;DHT22;7592;51.088;13.732;2022-08-01T13:05:57;30.60;82.20
14993;DHT22;7592;51.088;13.732;2022-08-01T13:10:53;30.90;82.20
14993;DHT22;7592;51.088;13.732;2022-08-01T13:16:12;31.20;80.90
14993;DHT22;7592;51.088;13.732;2022-08-01T13:21:23;31.40;80.00
14993;DHT22;7592;51.088;13.732;2022-08-01T13:26:16;31.40;79.20
14993;DHT22;7592;51.088;13.732;2022-08-01T13:31:08;30.50;78.50
14993;DHT22;7592;51.088;13.732;2022-08-01T13:36:02;29.90;79.40
14993;DHT22;7592;51.088;13.732;2022-08-01T13:40:58;30.30;80.20
14993;DHT22;7592;51.088;13.732;2022-08-01T13:45:50;30.40;80.40
14993;DHT22;7592;51.088;13.732;2022-08-01T13:50:42;30.60;80.30
14993;DHT22;7592;51.088;13.732;2022-08-01T13:55:34;30.10;80.10
14993;DHT22;7592;51.088;13.732;2022-08-01T14:00:27;30.00;82.00
14993;DHT22;7592;51.088;13.732;2022-08-01T14:05:19;29.80;81.90
14993;DHT22;7592;51.088;13.732;2022-08-01T14:10:11;29.60;82.40
14993;DHT22;7592;51.088;13.732;2022-08-01T14:15:11;29.50;83.00
14993;DHT22;7592;51.088;13.732;2022-08-01T14:20:04;29.80;82.80
14993;DHT22;7592;51.088;13.732;2022-08-01T14:24:57;30.10;81.90
14993;DHT22;7592;51.088;13.732;2022-08-01T14:29:54;29.70;82.10
14993;DHT22;7592;51.088;13.732;2022-08-01T14:34:55;29.40;83.10
14993;DHT22;7592;51.088;13.732;2022-08-01T14:39:49;29.60;83.50
14993;DHT22;7592;51.088;13.732;2022-08-01T14:44:45;29.30;83.00
14993;DHT22;7592;51.088;13.732;2022-08-01T14:49:41;28.80;83.60
14993;DHT22;7592;51.088;13.732;2022-08-01T14:54:36;29.00;84.00
14993;DHT22;7592;51.088;13.732;2022-08-01T14:59:28;28.90;83.00
14993;DHT22;7592;51.088;13.732;2022-08-01T15:04:20;28.80;82.40
14993;DHT22;7592;51.088;13.732;2022-08-01T15:09:13;28.90;83.20
14993;DHT22;7592;51.088;13.732;2022-08-01T15:14:05;29.00;83.50
14993;DHT22;7592;51.088;13.732;2022-08-01T15:19:16;28.90;83.20
14993;DHT22;7592;51.088;13.732;2022-08-01T15:24:10;28.50;85.20
14993;DHT22;7592;51.088;13.732;2022-08-01T15:35:51;28.30;85.50
14993;DHT22;7592;51.088;13.732;2022-08-01T15:40:46;28.30;85.30
14993;DHT22;7592;51.088;13.732;2022-08-01T15:45:40;28.00;86.10
14993;DHT22;7592;51.088;13.732;2022-08-01T15:50:44;28.20;86.10
14993;DHT22;7592;51.088;13.732;2022-08-01T15:55:38;27.80;86.70
14993;DHT22;7592;51.088;13.732;2022-08-01T16:00:35;27.70;87.80
14993;DHT22;7592;51.088;13.732;2022-08-01T16:05:31;27.60;87.60
14993;DHT22;7592;51.088;13.732;2022-08-01T16:10:24;27.50;88.30
14993;DHT22;7592;51.088;13.732;2022-08-01T16:15:17;27.50;89.30
14993;DHT22;7592;51.088;13.732;2022-08-01T16:20:10;27.70;89.00
14993;DHT22;7592;51.088;13.732;2022-08-01T16:25:03;27.90;87.90
14993;DHT22;7592;51.088;13.732;2022-08-01T16:29:57;28.10;87.50
14993;DHT22;7592;51.088;13.732;2022-08-01T16:34:49;28.30;85.20
14993;DHT22;7592;51.088;13.732;2022-08-01T16:39:42;28.40;85.50
14993;DHT22;7592;51.088;13.732;2022-08-01T16:44:39;28.10;86.80
14993;DHT22;7592;51.088;13.732;2022-08-01T16:49:32;27.50;88.20
14993;DHT22;7592;51.088;13.732;2022-08-01T16:54:27;27.10;89.70
14993;DHT22;7592;51.088;13.732;2022-08-01T16:59:19;26.90;90.40
14993;DHT22;7592;51.088;13.732;2022-08-01T17:04:11;26.70;90.80
14993;DHT22;7592;51.088;13.732;2022-08-01T17:09:04;26.50;91.00
14993;DHT22;7592;51.088;13.732;2022-08-01T17:13:56;26.40;91.60
14993;DHT22;7592;51.088;13.732;2022-08-01T17:18:48;26.40;91.60
14993;DHT22;7592;51.088;13.732;2022-08-01T17:23:42;26.30;91.70
14993;DHT22;7592;51.088;13.732;2022-08-01T17:28:35;26.30;91.80
14993;DHT22;7592;51.088;13.732;2022-08-01T17:33:29;26.40;91.50
14993;DHT22;7592;51.088;13.732;2022-08-01T17:38:38;26.30;91.70
14993;DHT22;7592;51.088;13.732;2022-08-01T17:43:32;26.10;92.00
14993;DHT22;7592;51.088;13.732;2022-08-01T17:48:27;26.10;92.30
14993;DHT22;7592;51.088;13.732;2022-08-01T17:53:21;26.00;92.70
14993;DHT22;7592;51.088;13.732;2022-08-01T17:58:16;25.80;93.00
14993;DHT22;7592;51.088;13.732;2022-08-01T18:03:29;25.70;93.40
14993;DHT22;7592;51.088;13.732;2022-08-01T18:08:33;25.40;94.20
14993;DHT22;7592;51.088;13.732;2022-08-01T18:13:26;25.10;94.90
14993;DHT22;7592;51.088;13.732;2022-08-01T18:18:21;24.90;95.50
14993;DHT22;7592;51.088;13.732;2022-08-01T18:23:26;24.80;96.30
14993;DHT22;7592;51.088;13.732;2022-08-01T18:28:19;24.60;97.30
14993;DHT22;7592;51.088;13.732;2022-08-01T18:33:24;24.50;98.20
14993;DHT22;7592;51.088;13.732;2022-08-01T18:38:20;24.30;99.50
14993;DHT22;7592;51.088;13.732;2022-08-01T18:43:16;24.20;99.90
14993;DHT22;7592;51.088;13.732;2022-08-01T18:48:10;24.10;99.90
14993;DHT22;7592;51.088;13.732;2022-08-01T18:53:02;24.00;99.90
14993;DHT22;7592;51.088;13.732;2022-08-01T18:57:54;23.80;99.90
14993;DHT22;7592;51.088;13.732;2022-08-01T19:02:46;23.70;99.90
14993;DHT22;7592;51.088;13.732;2022-08-01T19:07:39;23.50;99.90
14993;DHT22;7592;51.088;13.732;2022-08-01T19:12:51;23.40;99.90
14993;DHT22;7592;51.088;13.732;2022-08-01T19:17:45;23.30;99.90
14993;DHT22;7592;51.088;13.732;2022-08-01T19:22:38;23.20;99.90
14993;DHT22;7592;51.088;13.732;2022-08-01T19:27:33;23.10;99.90
14993;DHT22;7592;51.088;13.732;2022-08-01T19:32:28;22.90;99.90
14993;DHT22;7592;51.088;13.732;2022-08-01T19:37:23;22.80;99.90
14993;DHT22;7592;51.088;13.732;2022-08-01T19:42:19;22.70;99.90
14993;DHT22;7592;51.088;13.732;2022-08-01T19:47:11;22.70;99.90
14993;DHT22;7592;51.088;13.732;2022-08-01T19:52:05;22.60;99.90
14993;DHT22;7592;51.088;13.732;2022-08-01T19:57:00;22.50;99.90
14993;DHT22;7592;51.088;13.732;2022-08-01T20:01:53;22.40;99.90
14993;DHT22;7592;51.088;13.732;2022-08-01T20:06:47;22.30;99.90
14993;DHT22;7592;51.088;13.732;2022-08-01T20:11:45;22.20;99.90
14993;DHT22;7592;51.088;13.732;2022-08-01T20:16:37;22.10;99.90
14993;DHT22;7592;51.088;13.732;2022-08-01T20:21:31;22.00;99.90
14993;DHT22;7592;51.088;13.732;2022-08-01T20:26:27;21.90;99.90
14993;DHT22;7592;51.088;13.732;2022-08-01T20:31:21;21.90;99.90
14993;DHT22;7592;51.088;13.732;2022-08-01T20:36:15;21.90;99.90
14993;DHT22;7592;51.088;13.732;2022-08-01T20:41:27;21.80;99.90
14993;DHT22;7592;51.088;13.732;2022-08-01T20:46:27;21.70;99.90
14993;DHT22;7592;51.088;13.732;2022-08-01T20:51:29;21.60;99.90
14993;DHT22;7592;51.088;13.732;2022-08-01T20:56:43;21.40;99.90
14993;DHT22;7592;51.088;13.732;2022-08-01T21:01:56;21.40;99.90
14993;DHT22;7592;51.088;13.732;2022-08-01T21:07:00;21.30;99.90
14993;DHT22;7592;51.088;13.732;2022-08-01T21:12:01;21.30;99.90
14993;DHT22;7592;51.088;13.732;2022-08-01T21:17:00;21.40;99.90
14993;DHT22;7592;51.088;13.732;2022-08-01T21:22:05;21.30;99.90
14993;DHT22;7592;51.088;13.732;2022-08-01T21:27:02;21.20;99.90
14993;DHT22;7592;51.088;13.732;2022-08-01T21:31:56;21.20;99.90
14993;DHT22;7592;51.088;13.732;2022-08-01T21:37:08;21.10;99.90
14993;DHT22;7592;51.088;13.732;2022-08-01T21:42:03;21.00;99.90
14993;DHT22;7592;51.088;13.732;2022-08-01T21:47:09;20.90;99.90
14993;DHT22;7592;51.088;13.732;2022-08-01T21:52:10;20.90;99.90
14993;DHT22;7592;51.088;13.732;2022-08-01T22:02:40;20.60;99.90
14993;DHT22;7592;51.088;13.732;2022-08-01T22:07:43;20.40;99.90
14993;DHT22;7592;51.088;13.732;2022-08-01T22:12:36;20.40;99.90
14993;DHT22;7592;51.088;13.732;2022-08-01T22:17:29;20.50;99.90
14993;DHT22;7592;51.088;13.732;2022-08-01T22:22:22;20.40;99.90
14993;DHT22;7592;51.088;13.732;2022-08-01T22:27:37;20.30;99.90
14993;DHT22;7592;51.088;13.732;2022-08-01T22:32:52;20.30;99.90
14993;DHT22;7592;51.088;13.732;2022-08-01T22:38:05;20.40;99.90
14993;DHT22;7592;51.088;13.732;2022-08-01T22:43:03;20.50;99.90
14993;DHT22;7592;51.088;13.732;2022-08-01T22:48:17;20.60;99.90
14993;DHT22;7592;51.088;13.732;2022-08-01T22:58:21;20.30;99.90
14993;DHT22;7592;51.088;13.732;2022-08-01T23:03:28;20.10;99.90
14993;DHT22;7592;51.088;13.732;2022-08-01T23:08:21;19.90;99.90
14993;DHT22;7592;51.088;13.732;2022-08-01T23:13:14;19.80;99.90
14993;DHT22;7592;51.088;13.732;2022-08-01T23:18:07;19.70;99.90
14993;DHT22;7592;51.088;13.732;2022-08-01T23:23:01;19.50;99.90
14993;DHT22;7592;51.088;13.732;2022-08-01T23:27:54;19.50;99.90
14993;DHT22;7592;51.088;13.732;2022-08-01T23:32:57;19.40;99.90
14993;DHT22;7592;51.088;13.732;2022-08-01T23:37:50;19.30;99.90
14993;DHT22;7592;51.088;13.732;2022-08-01T23:42:42;19.40;99.90
14993;DHT22;7592;51.088;13.732;2022-08-01T23:47:34;19.30;99.90
14993;DHT22;7592;51.088;13.732;2022-08-01T23:52:26;19.10;99.90
14993;DHT22;7592;51.088;13.732;2022-08-01T23:57:23;19.10;99.90
